ADDS TAF Board (Experimental) INFO

IDs: Format: Expanded Condensed

Updated at: 0419 UTC 02 Sep 2014

KSAN - San Diego Intl Arpt, CA, US

Issued at 0329 UTC 02 Sep 2014
Time0351Z02/05Z02/06Z02/07Z02/08Z02/09Z02/10Z02/11Z02/12Z02/13Z02/14Z02/15Z02/16Z02/17Z
TypeOBSPRVLPRVLPRVLPRVLPRVLPRVLPRVLPRVLPRVLPRVLPRVLPRVLPRVL
VIS10>6>6>6>6>6>6>6>6>6>6>6>6>6
CIG--------141414141414141414--
CoverSCTFEWFEWFEWOVCOVCOVCOVCOVCOVCOVCOVCOVCFEW
FltCat--VFRVFRVFRMVFRMVFRMVFRMVFRMVFRMVFRMVFRMVFRMVFRVFR
WX----------------------------
WDir200170170170170170170170170170170170170250
WSpd56665555555558
WGst----------------------------
R09/27
XWnd-5-5-5-5-4-4-4-4-4-4-4-4-4-5
HWnd-0333222222222-6
Raw TAF
KSAN 020329Z 0203/0306 17006KT P6SM FEW015
  FM020800 17005KT P6SM OVC014
  FM021700 25008KT P6SM FEW020
  FM030300 VRB04KT P6SM BKN016


Raw METAR
KSAN 020351Z 20005KT 10SM SCT015 22/17 A2983 RMK AO2 SLP102 T02170167 $

TAF Board Legend

Hazard VFR MVFR IFR LIFR
Visibility (sm) >5 3≤X≤5 1≤X<3 <1
Ceiling (100 ft) >30 10≤X≤30 5≤X<10 <5
Wind Speed (kt) <10 10≤X<20 20≤X<30 ≥30
Wind Gust (kt) <15 15≤X<25 25≤X<35 ≥35
Weather No Wx Reported VCTS,-TS,-FZRA TS,FZRA +TS,+FZRA


Page loaded:  04:19 UTC  |   09:19 PM Pacific  |   10:19 PM Mountain  |   11:19 PM Central  |   12:19 AM Eastern

 

ADVISORIES

FORECASTS

FORECASTS

OBSERVATIONS

USER TOOLS

ABOUT US